Yellowknife Airport
CYZF : now visible

Airfield :











YOU CAN JOIN US ON...

 
LOGIN :

Register | Disclaimer

   EN    FR    IT 

 









Legend :    VFR   Marginal VFR   IFR   Intensive IFR   Very Intensive IFR
Visi :
Ceiling :
>= 8 km
>= 3000ft
5 to 8 km
1000 to 3000 ft
1500m to 5 km
500 to 1000 ft
800 to 1500m
200 to 500 ft
< 800m
< 200 ft
Symbols :   Thunderstorms  Fog  Heavy snow  Heavy precipitations  Wind > 20 kt






- Airport Elevation : 675 ft
- IATA code : YZF


CYZF - Yellowknife

CURRENT METAR :
  • 031000Z 12010KT 15SM SCT250 M04/M04 A2970 RMK CI4 SLP077

EXPIRED METARs :
  • 030900Z 12012KT 15SM SCT250 M04/M05 A2971 RMK CI4 SLP080
  • 030800Z 10009KT 15SM BKN250 M05/M06 A2974 RMK CI5 SLP090

TAF TAF CYZF
Valid from the 03 at 06:00 until the 04 at 06:00 UTC


030538Z 0306/0406 08007KT P6SM BKN250
FM030900 13010KT P6SM SCT004
PROB30 0309/0315 1SM BR BKN004
FM031500 15010KT P6SM FEW140 SCT240
BECMG 0322/0324 32007KT RMK NXT FCST BY 031200Z
CZEG FIR / North America



MET'MAP, your aeronautical weather chart ! - Copyright ORBIFLY December 2007 - Disclaimer

ORBIFLY MET'MAP TEAM :

Programming & Development : Alexandra Zaïnal
Concept & original design : Baudouin d'Aumeries
Assistance for programming : Marc-Olivier Méhu
Technical & hardware support : Manuel Goepfert

Contact : metmap@orbifly.com




SOURCES & CREDITS :

   NOAA       Earth
Advisory